< < Back
Terminal Aerodrome Forecast


Current Version              Previous Versions:   1  2  3  4  5  6  7  8  9  

Terminal Aerodrome Forecast

770
FTUS42 KGSP 292357 CCA
TAFGSP
TAF COR
KGSP 292357Z 3000/3024 04004KT P6SM VCSH SCT080 BKN100
      TEMPO 3000/3002 VRB10G20KT 6SM -TSRA OVC050CB
     FM300400 VRB03KT P6SM SCT080
     FM301400 10004KT P6SM FEW035
     FM301900 18006KT P6SM BKN045 PROB30 3019/3024 4SM -TSRA
      BKN035CB=

Latest METAR

589
SAUS70 KWBC 300300 RRQ
MTRGSP
METAR KGSP 300253Z 15005KT 10SM VCTS SCT110 24/18 A3000 RMK AO2 LTG DSNT
S SLP144 T02390183 53025


USA.gov is the U.S. government's official web portal to all federal, state and local government web resources and services.